sensor_id;sensor_type;location;lat;lon;timestamp;P1;durP1;ratioP1;P2;durP2;ratioP2
17858;SDS011;35426;30.698;104.050;2023-07-31T00:00:39;17.15;;;10.70;;
17858;SDS011;35426;30.698;104.050;2023-07-31T00:03:12;15.10;;;9.38;;
17858;SDS011;35426;30.698;104.050;2023-07-31T00:05:46;15.10;;;10.35;;
17858;SDS011;35426;30.698;104.050;2023-07-31T00:08:21;17.45;;;10.35;;
17858;SDS011;35426;30.698;104.050;2023-07-31T00:10:55;15.25;;;10.45;;
17858;SDS011;35426;30.698;104.050;2023-07-31T00:13:29;16.48;;;10.10;;
17858;SDS011;35426;30.698;104.050;2023-07-31T00:16:04;17.50;;;10.07;;
17858;SDS011;35426;30.698;104.050;2023-07-31T00:18:38;16.10;;;10.27;;
17858;SDS011;35426;30.698;104.050;2023-07-31T00:21:11;18.33;;;10.75;;
17858;SDS011;35426;30.698;104.050;2023-07-31T00:23:46;14.05;;;10.23;;
17858;SDS011;35426;30.698;104.050;2023-07-31T00:26:20;14.45;;;9.70;;
17858;SDS011;35426;30.698;104.050;2023-07-31T00:28:54;13.98;;;9.73;;
17858;SDS011;35426;30.698;104.050;2023-07-31T00:31:28;14.63;;;10.45;;
17858;SDS011;35426;30.698;104.050;2023-07-31T00:34:02;19.05;;;10.88;;
17858;SDS011;35426;30.698;104.050;2023-07-31T00:36:36;14.75;;;9.60;;
17858;SDS011;35426;30.698;104.050;2023-07-31T00:39:11;16.45;;;9.77;;
17858;SDS011;35426;30.698;104.050;2023-07-31T00:41:44;16.02;;;9.93;;
17858;SDS011;35426;30.698;104.050;2023-07-31T00:44:18;15.40;;;9.68;;
17858;SDS011;35426;30.698;104.050;2023-07-31T00:46:51;16.10;;;9.85;;
17858;SDS011;35426;30.698;104.050;2023-07-31T00:49:25;16.27;;;9.85;;
17858;SDS011;35426;30.698;104.050;2023-07-31T00:51:59;16.45;;;10.65;;
17858;SDS011;35426;30.698;104.050;2023-07-31T00:54:36;16.48;;;11.05;;
17858;SDS011;35426;30.698;104.050;2023-07-31T00:57:09;22.95;;;11.90;;
17858;SDS011;35426;30.698;104.050;2023-07-31T00:59:43;23.95;;;12.25;;
17858;SDS011;35426;30.698;104.050;2023-07-31T01:02:17;19.98;;;11.88;;
17858;SDS011;35426;30.698;104.050;2023-07-31T01:04:53;24.02;;;12.70;;
17858;SDS011;35426;30.698;104.050;2023-07-31T01:07:31;24.52;;;12.98;;
17858;SDS011;35426;30.698;104.050;2023-07-31T01:10:15;19.85;;;13.15;;
17858;SDS011;35426;30.698;104.050;2023-07-31T01:12:52;24.13;;;14.05;;
17858;SDS011;35426;30.698;104.050;2023-07-31T01:15:29;22.45;;;13.45;;
17858;SDS011;35426;30.698;104.050;2023-07-31T01:18:02;22.30;;;13.30;;
17858;SDS011;35426;30.698;104.050;2023-07-31T01:20:36;26.33;;;14.05;;
17858;SDS011;35426;30.698;104.050;2023-07-31T01:23:22;25.48;;;14.43;;
17858;SDS011;35426;30.698;104.050;2023-07-31T01:26:11;22.85;;;14.35;;
17858;SDS011;35426;30.698;104.050;2023-07-31T01:28:50;25.63;;;16.63;;
17858;SDS011;35426;30.698;104.050;2023-07-31T01:31:30;27.70;;;17.90;;
17858;SDS011;35426;30.698;104.050;2023-07-31T01:34:05;26.23;;;18.65;;
17858;SDS011;35426;30.698;104.050;2023-07-31T01:36:40;33.67;;;21.38;;
17858;SDS011;35426;30.698;104.050;2023-07-31T01:39:14;33.10;;;19.98;;
17858;SDS011;35426;30.698;104.050;2023-07-31T01:41:50;33.30;;;21.35;;
17858;SDS011;35426;30.698;104.050;2023-07-31T01:44:24;33.67;;;21.02;;
17858;SDS011;35426;30.698;104.050;2023-07-31T01:46:57;33.45;;;20.90;;
17858;SDS011;35426;30.698;104.050;2023-07-31T01:49:30;35.53;;;21.45;;
17858;SDS011;35426;30.698;104.050;2023-07-31T01:52:03;29.00;;;20.73;;
17858;SDS011;35426;30.698;104.050;2023-07-31T01:54:38;32.03;;;21.40;;
17858;SDS011;35426;30.698;104.050;2023-07-31T01:57:13;32.83;;;22.98;;
17858;SDS011;35426;30.698;104.050;2023-07-31T01:59:45;35.63;;;24.15;;
17858;SDS011;35426;30.698;104.050;2023-07-31T02:02:20;38.20;;;24.83;;
17858;SDS011;35426;30.698;104.050;2023-07-31T02:04:54;40.03;;;23.73;;
17858;SDS011;35426;30.698;104.050;2023-07-31T02:07:28;33.78;;;22.98;;
17858;SDS011;35426;30.698;104.050;2023-07-31T02:10:01;36.65;;;24.00;;
17858;SDS011;35426;30.698;104.050;2023-07-31T02:12:37;33.97;;;24.60;;
17858;SDS011;35426;30.698;104.050;2023-07-31T02:15:11;33.95;;;23.73;;
17858;SDS011;35426;30.698;104.050;2023-07-31T02:17:44;32.33;;;22.90;;
17858;SDS011;35426;30.698;104.050;2023-07-31T02:20:18;27.58;;;20.15;;
17858;SDS011;35426;30.698;104.050;2023-07-31T02:22:52;32.47;;;20.02;;
17858;SDS011;35426;30.698;104.050;2023-07-31T02:28:20;28.73;;;17.80;;
17858;SDS011;35426;30.698;104.050;2023-07-31T02:30:54;33.95;;;18.58;;
17858;SDS011;35426;30.698;104.050;2023-07-31T02:33:28;28.10;;;18.23;;
17858;SDS011;35426;30.698;104.050;2023-07-31T02:36:02;29.52;;;18.33;;
17858;SDS011;35426;30.698;104.050;2023-07-31T02:38:37;29.48;;;19.52;;
17858;SDS011;35426;30.698;104.050;2023-07-31T02:41:10;30.48;;;18.40;;
17858;SDS011;35426;30.698;104.050;2023-07-31T02:43:45;32.65;;;20.08;;
17858;SDS011;35426;30.698;104.050;2023-07-31T02:46:20;35.42;;;19.63;;
17858;SDS011;35426;30.698;104.050;2023-07-31T02:48:55;31.95;;;20.52;;
17858;SDS011;35426;30.698;104.050;2023-07-31T02:51:28;34.03;;;20.55;;
17858;SDS011;35426;30.698;104.050;2023-07-31T02:54:03;31.25;;;19.17;;
17858;SDS011;35426;30.698;104.050;2023-07-31T02:56:36;29.95;;;19.88;;
17858;SDS011;35426;30.698;104.050;2023-07-31T02:59:30;34.28;;;21.30;;
17858;SDS011;35426;30.698;104.050;2023-07-31T03:02:04;34.45;;;21.23;;
17858;SDS011;35426;30.698;104.050;2023-07-31T03:04:38;28.35;;;21.05;;
17858;SDS011;35426;30.698;104.050;2023-07-31T03:07:12;28.70;;;19.35;;
17858;SDS011;35426;30.698;104.050;2023-07-31T03:09:47;29.70;;;19.00;;
17858;SDS011;35426;30.698;104.050;2023-07-31T03:12:20;36.53;;;21.83;;
17858;SDS011;35426;30.698;104.050;2023-07-31T03:15:12;37.00;;;25.00;;
17858;SDS011;35426;30.698;104.050;2023-07-31T03:17:45;36.53;;;24.30;;
17858;SDS011;35426;30.698;104.050;2023-07-31T03:20:18;36.60;;;23.98;;
17858;SDS011;35426;30.698;104.050;2023-07-31T03:22:53;38.83;;;22.92;;
17858;SDS011;35426;30.698;104.050;2023-07-31T03:25:26;32.20;;;19.55;;
17858;SDS011;35426;30.698;104.050;2023-07-31T03:27:59;33.25;;;22.25;;
17858;SDS011;35426;30.698;104.050;2023-07-31T03:30:51;30.08;;;19.23;;
17858;SDS011;35426;30.698;104.050;2023-07-31T03:33:25;28.55;;;14.65;;
17858;SDS011;35426;30.698;104.050;2023-07-31T03:36:15;25.05;;;16.42;;
17858;SDS011;35426;30.698;104.050;2023-07-31T03:38:49;18.67;;;12.57;;
17858;SDS011;35426;30.698;104.050;2023-07-31T03:41:23;17.90;;;11.50;;
17858;SDS011;35426;30.698;104.050;2023-07-31T03:43:57;18.73;;;11.93;;
17858;SDS011;35426;30.698;104.050;2023-07-31T03:46:33;16.50;;;10.18;;
17858;SDS011;35426;30.698;104.050;2023-07-31T03:49:08;17.80;;;11.25;;
17858;SDS011;35426;30.698;104.050;2023-07-31T03:51:42;13.50;;;9.05;;
17858;SDS011;35426;30.698;104.050;2023-07-31T03:54:32;16.30;;;9.35;;
17858;SDS011;35426;30.698;104.050;2023-07-31T03:57:06;11.18;;;7.97;;
17858;SDS011;35426;30.698;104.050;2023-07-31T03:59:39;16.05;;;8.50;;
17858;SDS011;35426;30.698;104.050;2023-07-31T04:02:16;15.45;;;7.95;;
17858;SDS011;35426;30.698;104.050;2023-07-31T04:04:49;14.38;;;7.22;;
17858;SDS011;35426;30.698;104.050;2023-07-31T04:07:23;10.43;;;6.70;;
17858;SDS011;35426;30.698;104.050;2023-07-31T04:09:57;12.70;;;8.05;;
17858;SDS011;35426;30.698;104.050;2023-07-31T04:12:31;13.52;;;7.55;;
17858;SDS011;35426;30.698;104.050;2023-07-31T04:15:04;13.80;;;7.07;;
17858;SDS011;35426;30.698;104.050;2023-07-31T04:17:41;9.20;;;7.10;;
17858;SDS011;35426;30.698;104.050;2023-07-31T04:20:15;12.82;;;7.57;;
17858;SDS011;35426;30.698;104.050;2023-07-31T04:22:48;9.48;;;6.60;;
17858;SDS011;35426;30.698;104.050;2023-07-31T04:25:21;8.52;;;6.50;;
17858;SDS011;35426;30.698;104.050;2023-07-31T04:27:54;11.35;;;7.47;;
17858;SDS011;35426;30.698;104.050;2023-07-31T04:30:27;12.85;;;6.45;;
17858;SDS011;35426;30.698;104.050;2023-07-31T04:33:03;10.98;;;6.72;;
17858;SDS011;35426;30.698;104.050;2023-07-31T04:35:37;9.07;;;5.88;;
17858;SDS011;35426;30.698;104.050;2023-07-31T04:38:11;9.25;;;6.78;;
17858;SDS011;35426;30.698;104.050;2023-07-31T04:40:45;11.20;;;6.50;;
17858;SDS011;35426;30.698;104.050;2023-07-31T04:43:19;9.38;;;6.97;;
17858;SDS011;35426;30.698;104.050;2023-07-31T04:45:53;11.73;;;6.70;;
17858;SDS011;35426;30.698;104.050;2023-07-31T04:48:28;9.40;;;6.38;;
17858;SDS011;35426;30.698;104.050;2023-07-31T04:51:03;11.30;;;6.68;;
17858;SDS011;35426;30.698;104.050;2023-07-31T04:53:35;10.23;;;6.30;;
17858;SDS011;35426;30.698;104.050;2023-07-31T04:56:08;9.68;;;6.82;;
17858;SDS011;35426;30.698;104.050;2023-07-31T04:58:42;9.85;;;5.90;;
17858;SDS011;35426;30.698;104.050;2023-07-31T05:01:15;9.30;;;5.60;;
17858;SDS011;35426;30.698;104.050;2023-07-31T05:03:51;10.80;;;6.90;;
17858;SDS011;35426;30.698;104.050;2023-07-31T05:06:24;7.28;;;5.00;;
17858;SDS011;35426;30.698;104.050;2023-07-31T05:08:57;9.60;;;4.97;;
17858;SDS011;35426;30.698;104.050;2023-07-31T05:11:31;7.78;;;4.50;;
17858;SDS011;35426;30.698;104.050;2023-07-31T05:14:04;8.38;;;4.78;;
17858;SDS011;35426;30.698;104.050;2023-07-31T05:16:37;12.27;;;5.05;;
17858;SDS011;35426;30.698;104.050;2023-07-31T05:19:12;7.97;;;4.95;;
17858;SDS011;35426;30.698;104.050;2023-07-31T05:21:48;9.50;;;4.60;;
17858;SDS011;35426;30.698;104.050;2023-07-31T05:24:21;5.75;;;4.50;;
17858;SDS011;35426;30.698;104.050;2023-07-31T05:26:54;7.10;;;4.40;;
17858;SDS011;35426;30.698;104.050;2023-07-31T05:29:28;8.07;;;4.70;;
17858;SDS011;35426;30.698;104.050;2023-07-31T05:32:03;4.97;;;4.22;;
17858;SDS011;35426;30.698;104.050;2023-07-31T05:34:40;8.40;;;4.55;;
17858;SDS011;35426;30.698;104.050;2023-07-31T05:37:13;9.40;;;4.05;;
17858;SDS011;35426;30.698;104.050;2023-07-31T05:40:05;8.32;;;4.45;;
17858;SDS011;35426;30.698;104.050;2023-07-31T05:42:39;6.07;;;4.40;;
17858;SDS011;35426;30.698;104.050;2023-07-31T05:45:13;4.65;;;3.80;;
17858;SDS011;35426;30.698;104.050;2023-07-31T05:47:47;5.63;;;3.72;;
17858;SDS011;35426;30.698;104.050;2023-07-31T05:50:22;4.88;;;3.85;;
17858;SDS011;35426;30.698;104.050;2023-07-31T05:52:55;3.63;;;3.30;;
17858;SDS011;35426;30.698;104.050;2023-07-31T05:55:28;4.25;;;3.40;;
17858;SDS011;35426;30.698;104.050;2023-07-31T05:58:01;7.47;;;3.65;;
17858;SDS011;35426;30.698;104.050;2023-07-31T06:00:34;5.60;;;3.60;;
17858;SDS011;35426;30.698;104.050;2023-07-31T06:03:07;6.57;;;3.83;;
17858;SDS011;35426;30.698;104.050;2023-07-31T06:05:42;6.07;;;3.85;;
17858;SDS011;35426;30.698;104.050;2023-07-31T06:08:16;7.82;;;4.40;;
17858;SDS011;35426;30.698;104.050;2023-07-31T06:10:49;6.93;;;5.00;;
17858;SDS011;35426;30.698;104.050;2023-07-31T06:13:22;4.68;;;4.25;;
17858;SDS011;35426;30.698;104.050;2023-07-31T06:15:55;5.18;;;4.43;;
17858;SDS011;35426;30.698;104.050;2023-07-31T06:18:29;8.70;;;4.95;;
17858;SDS011;35426;30.698;104.050;2023-07-31T06:21:03;6.25;;;4.90;;
17858;SDS011;35426;30.698;104.050;2023-07-31T06:23:37;6.90;;;4.80;;
17858;SDS011;35426;30.698;104.050;2023-07-31T06:26:09;7.05;;;4.80;;
17858;SDS011;35426;30.698;104.050;2023-07-31T06:28:43;8.73;;;5.10;;
17858;SDS011;35426;30.698;104.050;2023-07-31T06:31:16;7.95;;;4.75;;
17858;SDS011;35426;30.698;104.050;2023-07-31T06:33:53;6.63;;;5.43;;
17858;SDS011;35426;30.698;104.050;2023-07-31T06:39:19;8.45;;;5.28;;
17858;SDS011;35426;30.698;104.050;2023-07-31T06:41:55;8.15;;;5.43;;
17858;SDS011;35426;30.698;104.050;2023-07-31T06:44:28;7.45;;;5.28;;
17858;SDS011;35426;30.698;104.050;2023-07-31T06:47:19;7.28;;;5.28;;
17858;SDS011;35426;30.698;104.050;2023-07-31T06:50:08;10.68;;;5.30;;
17858;SDS011;35426;30.698;104.050;2023-07-31T06:52:44;10.90;;;5.63;;
17858;SDS011;35426;30.698;104.050;2023-07-31T06:55:19;9.02;;;5.53;;
17858;SDS011;35426;30.698;104.050;2023-07-31T06:57:56;9.32;;;6.15;;
17858;SDS011;35426;30.698;104.050;2023-07-31T07:00:30;8.13;;;5.70;;
17858;SDS011;35426;30.698;104.050;2023-07-31T07:03:05;9.77;;;5.55;;
17858;SDS011;35426;30.698;104.050;2023-07-31T07:05:38;10.95;;;6.20;;
17858;SDS011;35426;30.698;104.050;2023-07-31T07:08:13;10.77;;;6.22;;
17858;SDS011;35426;30.698;104.050;2023-07-31T07:10:46;11.90;;;6.35;;
17858;SDS011;35426;30.698;104.050;2023-07-31T07:13:20;9.68;;;5.97;;
17858;SDS011;35426;30.698;104.050;2023-07-31T07:15:53;8.65;;;6.15;;
17858;SDS011;35426;30.698;104.050;2023-07-31T07:18:27;7.80;;;6.32;;
17858;SDS011;35426;30.698;104.050;2023-07-31T07:21:00;10.20;;;6.28;;
17858;SDS011;35426;30.698;104.050;2023-07-31T07:23:35;11.07;;;7.50;;
17858;SDS011;35426;30.698;104.050;2023-07-31T07:26:08;7.97;;;6.57;;
17858;SDS011;35426;30.698;104.050;2023-07-31T07:28:42;10.77;;;6.90;;
17858;SDS011;35426;30.698;104.050;2023-07-31T07:31:15;9.40;;;6.55;;
17858;SDS011;35426;30.698;104.050;2023-07-31T07:33:49;8.32;;;6.60;;
17858;SDS011;35426;30.698;104.050;2023-07-31T07:36:22;6.82;;;6.07;;
17858;SDS011;35426;30.698;104.050;2023-07-31T07:38:57;12.07;;;7.03;;
17858;SDS011;35426;30.698;104.050;2023-07-31T07:41:30;8.68;;;6.72;;
17858;SDS011;35426;30.698;104.050;2023-07-31T07:44:07;10.90;;;6.53;;
17858;SDS011;35426;30.698;104.050;2023-07-31T07:46:41;9.30;;;6.80;;
17858;SDS011;35426;30.698;104.050;2023-07-31T07:49:15;7.97;;;6.25;;
17858;SDS011;35426;30.698;104.050;2023-07-31T07:51:51;12.82;;;6.70;;
17858;SDS011;35426;30.698;104.050;2023-07-31T07:54:28;9.13;;;6.75;;
17858;SDS011;35426;30.698;104.050;2023-07-31T07:57:02;9.93;;;6.90;;
17858;SDS011;35426;30.698;104.050;2023-07-31T07:59:37;8.38;;;6.60;;
17858;SDS011;35426;30.698;104.050;2023-07-31T08:02:11;9.63;;;7.50;;
17858;SDS011;35426;30.698;104.050;2023-07-31T08:04:45;11.90;;;7.15;;
17858;SDS011;35426;30.698;104.050;2023-07-31T08:07:18;8.57;;;6.53;;
17858;SDS011;35426;30.698;104.050;2023-07-31T08:09:54;8.05;;;6.28;;
17858;SDS011;35426;30.698;104.050;2023-07-31T08:12:27;11.23;;;6.90;;
17858;SDS011;35426;30.698;104.050;2023-07-31T08:15:03;9.18;;;6.70;;
17858;SDS011;35426;30.698;104.050;2023-07-31T08:17:38;9.82;;;6.60;;
17858;SDS011;35426;30.698;104.050;2023-07-31T08:20:11;9.93;;;6.70;;
17858;SDS011;35426;30.698;104.050;2023-07-31T08:22:45;9.13;;;6.55;;
17858;SDS011;35426;30.698;104.050;2023-07-31T08:25:20;8.15;;;7.30;;
17858;SDS011;35426;30.698;104.050;2023-07-31T08:27:57;18.50;;;11.68;;
17858;SDS011;35426;30.698;104.050;2023-07-31T08:30:30;18.15;;;10.85;;
17858;SDS011;35426;30.698;104.050;2023-07-31T08:33:24;23.85;;;13.60;;
17858;SDS011;35426;30.698;104.050;2023-07-31T08:35:57;17.02;;;13.30;;
17858;SDS011;35426;30.698;104.050;2023-07-31T08:38:31;19.85;;;12.63;;
17858;SDS011;35426;30.698;104.050;2023-07-31T08:41:07;20.48;;;12.93;;
17858;SDS011;35426;30.698;104.050;2023-07-31T08:43:44;14.82;;;12.43;;
17858;SDS011;35426;30.698;104.050;2023-07-31T08:46:18;17.05;;;12.07;;
17858;SDS011;35426;30.698;104.050;2023-07-31T08:48:53;16.92;;;12.63;;
17858;SDS011;35426;30.698;104.050;2023-07-31T08:51:28;20.52;;;12.75;;
17858;SDS011;35426;30.698;104.050;2023-07-31T08:54:04;16.05;;;12.48;;
17858;SDS011;35426;30.698;104.050;2023-07-31T08:56:41;15.95;;;12.70;;
17858;SDS011;35426;30.698;104.050;2023-07-31T08:59:15;18.15;;;13.30;;
17858;SDS011;35426;30.698;104.050;2023-07-31T09:01:53;16.80;;;12.50;;
17858;SDS011;35426;30.698;104.050;2023-07-31T09:04:27;15.25;;;12.30;;
17858;SDS011;35426;30.698;104.050;2023-07-31T09:07:03;20.63;;;12.73;;
17858;SDS011;35426;30.698;104.050;2023-07-31T09:09:38;21.23;;;12.35;;
17858;SDS011;35426;30.698;104.050;2023-07-31T09:12:14;18.17;;;12.82;;
17858;SDS011;35426;30.698;104.050;2023-07-31T09:14:48;17.08;;;11.93;;
17858;SDS011;35426;30.698;104.050;2023-07-31T09:17:28;15.48;;;12.13;;
17858;SDS011;35426;30.698;104.050;2023-07-31T09:20:13;25.95;;;12.32;;
17858;SDS011;35426;30.698;104.050;2023-07-31T09:22:47;18.75;;;11.55;;
17858;SDS011;35426;30.698;104.050;2023-07-31T09:25:21;16.10;;;12.20;;
17858;SDS011;35426;30.698;104.050;2023-07-31T09:27:59;19.38;;;11.75;;
17858;SDS011;35426;30.698;104.050;2023-07-31T09:30:44;18.55;;;12.07;;
17858;SDS011;35426;30.698;104.050;2023-07-31T09:33:19;16.60;;;11.45;;
17858;SDS011;35426;30.698;104.050;2023-07-31T09:35:52;20.38;;;11.80;;
17858;SDS011;35426;30.698;104.050;2023-07-31T09:38:26;14.43;;;12.43;;
17858;SDS011;35426;30.698;104.050;2023-07-31T09:41:00;15.20;;;12.75;;
17858;SDS011;35426;30.698;104.050;2023-07-31T09:43:36;17.75;;;13.13;;
17858;SDS011;35426;30.698;104.050;2023-07-31T09:46:13;17.98;;;12.75;;
17858;SDS011;35426;30.698;104.050;2023-07-31T09:48:48;17.15;;;13.73;;
17858;SDS011;35426;30.698;104.050;2023-07-31T09:51:26;16.83;;;13.18;;
17858;SDS011;35426;30.698;104.050;2023-07-31T09:53:59;17.08;;;12.60;;
17858;SDS011;35426;30.698;104.050;2023-07-31T09:56:34;17.65;;;13.25;;
17858;SDS011;35426;30.698;104.050;2023-07-31T09:59:14;24.02;;;13.77;;
17858;SDS011;35426;30.698;104.050;2023-07-31T10:01:53;18.10;;;12.85;;
17858;SDS011;35426;30.698;104.050;2023-07-31T10:04:28;15.80;;;12.50;;
17858;SDS011;35426;30.698;104.050;2023-07-31T10:07:02;16.10;;;12.32;;
17858;SDS011;35426;30.698;104.050;2023-07-31T10:09:40;17.52;;;12.77;;
17858;SDS011;35426;30.698;104.050;2023-07-31T10:12:15;20.73;;;12.52;;
17858;SDS011;35426;30.698;104.050;2023-07-31T10:14:52;15.93;;;13.35;;
17858;SDS011;35426;30.698;104.050;2023-07-31T10:17:27;19.50;;;12.40;;
17858;SDS011;35426;30.698;104.050;2023-07-31T10:20:01;17.02;;;12.25;;
17858;SDS011;35426;30.698;104.050;2023-07-31T10:22:36;18.38;;;13.18;;
17858;SDS011;35426;30.698;104.050;2023-07-31T10:25:10;16.60;;;13.18;;
17858;SDS011;35426;30.698;104.050;2023-07-31T10:27:44;17.00;;;11.93;;
17858;SDS011;35426;30.698;104.050;2023-07-31T10:30:21;17.85;;;12.45;;
17858;SDS011;35426;30.698;104.050;2023-07-31T10:32:57;18.30;;;12.95;;
17858;SDS011;35426;30.698;104.050;2023-07-31T10:35:31;20.40;;;14.57;;
17858;SDS011;35426;30.698;104.050;2023-07-31T10:38:10;17.10;;;12.57;;
17858;SDS011;35426;30.698;104.050;2023-07-31T10:40:44;16.35;;;12.23;;
17858;SDS011;35426;30.698;104.050;2023-07-31T10:43:24;17.98;;;12.77;;
17858;SDS011;35426;30.698;104.050;2023-07-31T10:46:01;18.38;;;13.05;;
17858;SDS011;35426;30.698;104.050;2023-07-31T10:48:40;16.73;;;12.95;;
17858;SDS011;35426;30.698;104.050;2023-07-31T10:51:13;20.02;;;13.10;;
17858;SDS011;35426;30.698;104.050;2023-07-31T10:53:48;20.45;;;12.85;;
17858;SDS011;35426;30.698;104.050;2023-07-31T10:56:44;18.50;;;13.20;;
17858;SDS011;35426;30.698;104.050;2023-07-31T10:59:18;17.17;;;12.98;;
17858;SDS011;35426;30.698;104.050;2023-07-31T11:01:54;19.58;;;13.60;;
17858;SDS011;35426;30.698;104.050;2023-07-31T11:04:32;18.02;;;13.40;;
17858;SDS011;35426;30.698;104.050;2023-07-31T11:07:05;17.60;;;13.40;;
17858;SDS011;35426;30.698;104.050;2023-07-31T11:09:40;19.73;;;13.40;;
17858;SDS011;35426;30.698;104.050;2023-07-31T11:12:13;18.30;;;13.20;;
17858;SDS011;35426;30.698;104.050;2023-07-31T11:14:53;20.27;;;13.55;;
17858;SDS011;35426;30.698;104.050;2023-07-31T11:17:30;16.33;;;12.80;;
17858;SDS011;35426;30.698;104.050;2023-07-31T11:20:03;18.75;;;13.35;;
17858;SDS011;35426;30.698;104.050;2023-07-31T11:22:38;23.23;;;13.23;;
17858;SDS011;35426;30.698;104.050;2023-07-31T11:25:10;17.80;;;12.95;;
17858;SDS011;35426;30.698;104.050;2023-07-31T11:27:45;17.85;;;13.63;;
17858;SDS011;35426;30.698;104.050;2023-07-31T11:30:22;19.85;;;13.13;;
17858;SDS011;35426;30.698;104.050;2023-07-31T11:32:57;17.30;;;13.98;;
17858;SDS011;35426;30.698;104.050;2023-07-31T11:35:34;21.40;;;13.35;;
17858;SDS011;35426;30.698;104.050;2023-07-31T11:38:16;18.42;;;13.75;;
17858;SDS011;35426;30.698;104.050;2023-07-31T11:40:54;18.20;;;12.38;;
17858;SDS011;35426;30.698;104.050;2023-07-31T11:43:30;16.80;;;10.82;;
17858;SDS011;35426;30.698;104.050;2023-07-31T11:46:05;15.75;;;10.82;;
17858;SDS011;35426;30.698;104.050;2023-07-31T11:48:41;18.05;;;11.45;;
17858;SDS011;35426;30.698;104.050;2023-07-31T11:51:14;20.58;;;12.07;;
17858;SDS011;35426;30.698;104.050;2023-07-31T11:53:49;18.02;;;11.45;;
17858;SDS011;35426;30.698;104.050;2023-07-31T11:56:27;15.82;;;11.90;;
17858;SDS011;35426;30.698;104.050;2023-07-31T11:59:01;14.35;;;10.77;;
17858;SDS011;35426;30.698;104.050;2023-07-31T12:01:37;15.65;;;11.00;;
17858;SDS011;35426;30.698;104.050;2023-07-31T12:04:14;13.27;;;10.32;;
17858;SDS011;35426;30.698;104.050;2023-07-31T12:07:04;15.85;;;10.68;;
17858;SDS011;35426;30.698;104.050;2023-07-31T12:09:50;17.45;;;11.05;;
17858;SDS011;35426;30.698;104.050;2023-07-31T12:12:29;18.75;;;10.40;;
17858;SDS011;35426;30.698;104.050;2023-07-31T12:15:13;17.25;;;11.07;;
17858;SDS011;35426;30.698;104.050;2023-07-31T12:17:49;18.38;;;10.90;;
17858;SDS011;35426;30.698;104.050;2023-07-31T12:20:25;15.00;;;10.82;;
17858;SDS011;35426;30.698;104.050;2023-07-31T12:22:58;12.95;;;10.25;;
17858;SDS011;35426;30.698;104.050;2023-07-31T12:25:32;13.07;;;10.80;;
17858;SDS011;35426;30.698;104.050;2023-07-31T12:28:08;17.55;;;10.38;;
17858;SDS011;35426;30.698;104.050;2023-07-31T12:30:42;14.00;;;9.38;;
17858;SDS011;35426;30.698;104.050;2023-07-31T12:33:18;18.90;;;9.93;;
17858;SDS011;35426;30.698;104.050;2023-07-31T12:35:54;13.50;;;9.00;;
17858;SDS011;35426;30.698;104.050;2023-07-31T12:38:28;17.75;;;9.63;;
17858;SDS011;35426;30.698;104.050;2023-07-31T12:41:04;20.77;;;9.02;;
17858;SDS011;35426;30.698;104.050;2023-07-31T12:43:40;14.02;;;8.00;;
17858;SDS011;35426;30.698;104.050;2023-07-31T12:46:15;13.25;;;7.60;;
17858;SDS011;35426;30.698;104.050;2023-07-31T12:48:49;14.63;;;7.93;;
17858;SDS011;35426;30.698;104.050;2023-07-31T12:51:31;14.90;;;7.35;;
17858;SDS011;35426;30.698;104.050;2023-07-31T12:56:55;15.35;;;9.20;;
17858;SDS011;35426;30.698;104.050;2023-07-31T12:59:29;13.63;;;8.68;;
17858;SDS011;35426;30.698;104.050;2023-07-31T13:02:02;12.38;;;8.10;;
17858;SDS011;35426;30.698;104.050;2023-07-31T13:04:38;11.23;;;7.78;;
17858;SDS011;35426;30.698;104.050;2023-07-31T13:07:13;14.10;;;7.50;;
17858;SDS011;35426;30.698;104.050;2023-07-31T13:09:48;15.80;;;8.10;;
17858;SDS011;35426;30.698;104.050;2023-07-31T13:12:22;10.50;;;8.35;;
17858;SDS011;35426;30.698;104.050;2023-07-31T13:14:57;14.50;;;8.30;;
17858;SDS011;35426;30.698;104.050;2023-07-31T13:17:32;16.85;;;8.02;;
17858;SDS011;35426;30.698;104.050;2023-07-31T13:20:06;11.88;;;7.70;;
17858;SDS011;35426;30.698;104.050;2023-07-31T13:22:42;12.55;;;8.63;;
17858;SDS011;35426;30.698;104.050;2023-07-31T13:25:15;15.85;;;9.95;;
17858;SDS011;35426;30.698;104.050;2023-07-31T13:27:49;15.43;;;9.60;;
17858;SDS011;35426;30.698;104.050;2023-07-31T13:30:22;14.85;;;9.20;;
17858;SDS011;35426;30.698;104.050;2023-07-31T13:32:57;18.98;;;8.60;;
17858;SDS011;35426;30.698;104.050;2023-07-31T13:35:44;13.63;;;8.52;;
17858;SDS011;35426;30.698;104.050;2023-07-31T13:38:20;11.15;;;8.80;;
17858;SDS011;35426;30.698;104.050;2023-07-31T13:40:57;13.95;;;8.32;;
17858;SDS011;35426;30.698;104.050;2023-07-31T13:43:31;12.68;;;8.15;;
17858;SDS011;35426;30.698;104.050;2023-07-31T13:46:05;13.73;;;8.02;;
17858;SDS011;35426;30.698;104.050;2023-07-31T13:48:41;11.82;;;8.20;;
17858;SDS011;35426;30.698;104.050;2023-07-31T13:51:14;15.23;;;8.55;;
17858;SDS011;35426;30.698;104.050;2023-07-31T13:53:51;12.88;;;8.32;;
17858;SDS011;35426;30.698;104.050;2023-07-31T13:56:25;15.15;;;8.70;;
17858;SDS011;35426;30.698;104.050;2023-07-31T13:58:59;16.75;;;8.77;;
17858;SDS011;35426;30.698;104.050;2023-07-31T14:01:33;14.48;;;8.82;;
17858;SDS011;35426;30.698;104.050;2023-07-31T14:04:07;16.95;;;9.35;;
17858;SDS011;35426;30.698;104.050;2023-07-31T14:06:40;20.27;;;12.50;;
17858;SDS011;35426;30.698;104.050;2023-07-31T14:09:16;14.43;;;8.73;;
17858;SDS011;35426;30.698;104.050;2023-07-31T14:11:50;15.68;;;9.35;;
17858;SDS011;35426;30.698;104.050;2023-07-31T14:14:27;13.82;;;8.30;;
17858;SDS011;35426;30.698;104.050;2023-07-31T14:17:03;18.80;;;8.52;;
17858;SDS011;35426;30.698;104.050;2023-07-31T14:19:37;13.98;;;8.30;;
17858;SDS011;35426;30.698;104.050;2023-07-31T14:22:12;15.20;;;9.07;;
17858;SDS011;35426;30.698;104.050;2023-07-31T14:24:47;17.58;;;10.30;;
17858;SDS011;35426;30.698;104.050;2023-07-31T14:27:21;15.98;;;9.35;;
17858;SDS011;35426;30.698;104.050;2023-07-31T14:29:56;17.55;;;11.00;;
17858;SDS011;35426;30.698;104.050;2023-07-31T14:32:29;18.80;;;11.02;;
17858;SDS011;35426;30.698;104.050;2023-07-31T14:35:02;17.45;;;11.73;;
17858;SDS011;35426;30.698;104.050;2023-07-31T14:37:39;18.25;;;11.18;;
17858;SDS011;35426;30.698;104.050;2023-07-31T14:40:17;19.13;;;11.15;;
17858;SDS011;35426;30.698;104.050;2023-07-31T14:42:51;19.08;;;11.90;;
17858;SDS011;35426;30.698;104.050;2023-07-31T14:45:24;24.65;;;14.27;;
17858;SDS011;35426;30.698;104.050;2023-07-31T14:47:57;20.05;;;13.73;;
17858;SDS011;35426;30.698;104.050;2023-07-31T14:50:30;17.40;;;11.57;;
17858;SDS011;35426;30.698;104.050;2023-07-31T14:53:03;21.05;;;12.20;;
17858;SDS011;35426;30.698;104.050;2023-07-31T14:55:40;19.17;;;11.70;;
17858;SDS011;35426;30.698;104.050;2023-07-31T14:58:13;28.20;;;11.73;;